Terminal Aerodrome Forecast
Issued by NWS Pittsburgh, PA

Home | Current Version | Previous Version | Text Only | Print | Product List | Glossary On
Versions: 1 2 3 4 5 6 7 8 9 10 11 12 13 14 15 16 17 18 19 20 21 22 23 24 25 26 27 28 29 30 31
000
FTUS41 KPBZ 021100
TAFPIT
TAF
KPIT 021139Z 0212/0318 31016KT 4SM -SN BR BKN015
     FM021300 28008KT P6SM BKN025
     FM022300 VRB03KT P6SM BKN250
     FM030800 VRB05KT P6SM OVC120
     FM031600 10006KT 6SM -FZRA OVC015=

USA.gov is the U.S. government's official web portal to all federal, state and local government web resources and services.